Flight Track Log - Related Links

Times and Time Zones

All times are in EDT time to prevent confusion due to time zone crossing. See the SWA1046 flight status page for this flight to view local times or setup timezone preferences in your user account.

Time Position Orientation Groundspeed Altitude Reporting Facility
EDT Latitude Longitude Course Direction KTS MPH feet Rate Location/Type
Tue 11:17:34 AM 28.3833 -81.3000 180° South 163 188 1,600  Level Orlando TRACON
Tue 11:18:34 AM 28.3333 -81.3500 221° Southwest 211 243 4,200 2,895 Climbing Orlando TRACON
Tue 11:20:26 AM 28.3339 -81.4683 270° West 254 292 9,900 2,756 Climbing Jacksonville Center
Tue 11:21:26 AM 28.3497 -81.5575 281° West 270 311 12,100 2,850 Climbing Jacksonville Center
Tue 11:22:26 AM 28.3694 -81.6611 282° West 309 356 15,600 3,150 Climbing Jacksonville Center
Tue 11:23:26 AM 28.3850 -81.7672 279° West 338 389 18,400 2,900 Climbing Jacksonville Center
Tue 11:24:26 AM 28.4067 -81.8778 283° West 353 406 21,400 2,700 Climbing Jacksonville Center
Tue 11:25:26 AM 28.4328 -81.9956 284° West 366 421 23,800 2,300 Climbing Jacksonville Center
Tue 11:26:26 AM 28.4583 -82.1086 284° West 372 428 26,000 2,150 Climbing Jacksonville Center
Tue 11:27:26 AM 28.4800 -82.2314 281° West 377 434 28,100 2,050 Climbing Jacksonville Center
Tue 11:28:26 AM 28.5078 -82.3492 285° West 383 441 30,100 1,950 Climbing Jacksonville Center
Tue 11:29:26 AM 28.5353 -82.4672 285° West 390 449 32,000 1,250 Climbing Jacksonville Center
Tue 11:30:26 AM 28.5897 -82.5733 300° West 390 449 32,600 1,150 Climbing Jacksonville Center
Tue 11:31:26 AM 28.6861 -82.6536 324° Northwest 397 457 34,300 1,600 Climbing Jacksonville Center
Tue 11:32:26 AM 28.7800 -82.7267 326° Northwest 402 463 35,800 1,400 Climbing Jacksonville Center
Tue 11:33:26 AM 28.8783 -82.8025 326° Northwest 419 482 37,100 1,100 Climbing Jacksonville Center
Tue 11:34:26 AM 28.9742 -82.8806 325° Northwest 424 488 38,000 450 Climbing Jacksonville Center
Tue 11:35:26 AM 29.0722 -82.9592 325° Northwest 429 494 38,000  Level Jacksonville Center
Tue 11:36:26 AM 29.1661 -83.0353 325° Northwest 429 494 38,000  Level Jacksonville Center
Tue 11:37:26 AM 29.2642 -83.1139 325° Northwest 429 494 38,000  Level Jacksonville Center
Tue 11:38:26 AM 29.3558 -83.1903 324° Northwest 429 494 38,000  Level Jacksonville Center
Tue 11:39:26 AM 29.4539 -83.2669 326° Northwest 429 494 38,000  Level Jacksonville Center
Tue 11:40:27 AM 29.5475 -83.3461 324° Northwest 429 494 38,000  Level Jacksonville Center
Tue 11:41:26 AM 29.6411 -83.4206 325° Northwest 429 494 38,000  Level Jacksonville Center
Tue 11:42:26 AM 29.7347 -83.5000 324° Northwest 429 494 38,000  Level Jacksonville Center
Tue 11:43:27 AM 29.8303 -83.5772 325° Northwest 429 494 38,000  Level Jacksonville Center
Tue 11:44:26 AM 29.9303 -83.6594 325° Northwest 424 488 38,000  Level Jacksonville Center
Tue 11:45:26 AM 30.0258 -83.7369 325° Northwest 424 488 38,000  Level Jacksonville Center
Tue 11:46:26 AM 30.1169 -83.8122 324° Northwest 419 482 38,000  Level Jacksonville Center
Tue 11:47:26 AM 30.2125 -83.8900 325° Northwest 419 482 38,000  Level Jacksonville Center
Tue 11:48:26 AM 30.3078 -83.9706 324° Northwest 419 482 38,000  Level Jacksonville Center
Tue 11:49:26 AM 30.4033 -84.0486 325° Northwest 419 482 38,000  Level Jacksonville Center
Tue 11:50:26 AM 30.4986 -84.1269 325° Northwest 424 488 38,000  Level Jacksonville Center
Tue 11:51:26 AM 30.5875 -84.2078 322° Northwest 416 479 38,000  Level Jacksonville Center
Tue 11:52:26 AM 30.6828 -84.2864 325° Northwest 411 473 38,000  Level Jacksonville Center
Tue 11:53:26 AM 30.7778 -84.3650 325° Northwest 411 473 38,000  Level Jacksonville Center
Tue 11:54:26 AM 30.8708 -84.4439 324° Northwest 411 473 38,000  Level Jacksonville Center
Tue 11:55:26 AM 30.9639 -84.5256 323° Northwest 406 467 38,000  Level Jacksonville Center
Tue 11:56:26 AM 31.0567 -84.6022 325° Northwest 406 467 38,000  Level Jacksonville Center
Tue 11:57:26 AM 31.1497 -84.6817 324° Northwest 406 467 38,000  Level Jacksonville Center
Tue 11:59:46 AM 31.3558 -84.8583 324° Northwest 412 474 38,000  Level Atlanta Center
Tue 12:00:46 PM 31.4469 -84.9369 324° Northwest 406 467 38,000  Level Atlanta Center
Tue 12:01:46 PM 31.5403 -85.0158 324° Northwest 406 467 38,000  Level Atlanta Center
Tue 12:02:46 PM 31.6336 -85.0950 324° Northwest 406 467 38,000  Level Atlanta Center
Tue 12:03:46 PM 31.7206 -85.1692 324° Northwest 401 461 38,000  Level Atlanta Center
Tue 12:04:46 PM 31.8117 -85.2461 324° Northwest 407 468 38,000  Level Atlanta Center
Tue 12:05:46 PM 31.9047 -85.3281 323° Northwest 407 468 38,000  Level Atlanta Center
Tue 12:06:46 PM 31.9936 -85.4028 325° Northwest 407 468 38,000  Level Atlanta Center
Tue 12:07:46 PM 32.0825 -85.4803 324° Northwest 407 468 38,000  Level Atlanta Center
Tue 12:08:46 PM 32.1714 -85.5603 323° Northwest 407 468 38,000 -150 Level Atlanta Center
Tue 12:09:46 PM 32.2706 -85.6431 325° Northwest 406 467 37,700 -500 Descending Atlanta Center
Tue 12:10:46 PM 32.3614 -85.7233 323° Northwest 406 467 37,000 -350 Descending Atlanta Center
Tue 12:11:46 PM 32.4417 -85.7986 322° Northwest 406 467 37,000  Level Atlanta Center
Tue 12:12:45 PM 32.5242 -85.8667 325° Northwest 411 473 37,000 -500 Level Atlanta Center
Tue 12:13:46 PM 32.6311 -85.9628 323° Northwest 411 473 36,000 -496 Descending Atlanta Center
Tue 12:14:46 PM 32.7178 -86.0411 323° Northwest 400 460 36,000  Level Atlanta Center
Tue 12:15:46 PM 32.8061 -86.1222 322° Northwest 400 460 36,000  Level Atlanta Center
Tue 12:16:46 PM 32.8967 -86.1986 325° Northwest 400 460 36,000 450 Level Atlanta Center
Tue 12:17:46 PM 32.9869 -86.2825 322° Northwest 406 467 36,900 1,150 Climbing Atlanta Center
Tue 12:18:46 PM 33.0753 -86.3592 324° Northwest 406 467 38,300 1,050 Climbing Atlanta Center
Tue 12:19:46 PM 33.1633 -86.4408 322° Northwest 401 461 39,000 650 Climbing Atlanta Center
Tue 12:20:46 PM 33.2539 -86.5178 325° Northwest 406 467 39,600 500 Climbing Atlanta Center
Tue 12:21:46 PM 33.3336 -86.5947 321° Northwest 406 467 40,000 200 Climbing Atlanta Center
Tue 12:22:46 PM 33.4236 -86.6769 323° Northwest 406 467 40,000  Level Atlanta Center
Tue 12:23:46 PM 33.5158 -86.7597 323° Northwest 406 467 40,000  Level Atlanta Center
Tue 12:24:46 PM 33.6078 -86.8422 323° Northwest 406 467 40,000  Level Atlanta Center
Tue 12:25:46 PM 33.7019 -86.9228 325° Northwest 406 467 40,000  Level Atlanta Center
Tue 12:27:32 PM 33.8853 -87.0769 325° Northwest 425 489 40,000  Level Memphis Center
Tue 12:28:32 PM 33.9789 -87.1458 329° Northwest 419 482 40,000  Level Memphis Center
Tue 12:29:32 PM 34.0683 -87.2203 325° Northwest 419 482 40,000  Level Memphis Center
Tue 12:30:32 PM 34.1767 -87.2967 330° Northwest 419 482 40,000  Level Memphis Center
Tue 12:31:32 PM 34.2744 -87.3736 327° Northwest 420 483 40,000  Level Memphis Center
Tue 12:32:32 PM 34.3681 -87.4508 326° Northwest 420 483 40,000  Level Memphis Center
Tue 12:33:32 PM 34.4681 -87.5306 327° Northwest 420 483 40,000  Level Memphis Center
Tue 12:34:32 PM 34.5658 -87.6081 327° Northwest 417 480 40,000  Level Memphis Center
Tue 12:35:32 PM 34.6636 -87.6883 326° Northwest 422 486 40,000  Level Memphis Center
Tue 12:36:32 PM 34.7611 -87.7661 327° Northwest 427 491 40,000  Level Memphis Center
Tue 12:37:32 PM 34.8631 -87.8464 327° Northwest 432 497 40,000  Level Memphis Center
Tue 12:38:32 PM 34.9564 -87.9247 325° Northwest 427 491 40,000  Level Memphis Center
Tue 12:39:32 PM 35.0539 -88.0031 327° Northwest 427 491 40,000  Level Memphis Center
Tue 12:40:32 PM 35.1492 -88.0867 324° Northwest 427 491 40,000  Level Memphis Center
Tue 12:41:32 PM 35.2467 -88.1656 327° Northwest 427 491 40,000  Level Memphis Center
Tue 12:42:32 PM 35.3419 -88.2444 326° Northwest 427 491 40,000  Level Memphis Center
Tue 12:43:32 PM 35.4264 -88.3111 327° Northwest 422 486 40,000  Level Memphis Center
Tue 12:44:32 PM 35.5319 -88.3953 327° Northwest 422 486 40,000  Level Memphis Center
Tue 12:45:32 PM 35.6292 -88.4744 327° Northwest 416 479 40,000  Level Memphis Center
Tue 12:46:32 PM 35.7264 -88.5567 326° Northwest 416 479 40,000  Level Memphis Center
Tue 12:47:44 PM 35.8236 -88.6417 325° Northwest 423 487 40,000  Level Memphis Center
Tue 12:48:44 PM 35.9394 -88.7392 326° Northwest 428 493 40,000  Level Memphis Center
Tue 12:49:44 PM 36.0364 -88.8194 326° Northwest 428 493 40,000 -500 Level Memphis Center
Tue 12:50:44 PM 36.1333 -88.8997 326° Northwest 428 493 39,000 -1,000 Descending Memphis Center
Tue 12:51:44 PM 36.2281 -88.9806 325° Northwest 428 493 38,000 -950 Descending Memphis Center
Tue 12:52:44 PM 36.3183 -89.0458 330° Northwest 428 493 37,100 -950 Descending Memphis Center
Tue 12:53:44 PM 36.4275 -89.1086 335° Northwest 428 493 36,100 -950 Descending Memphis Center
Tue 12:54:44 PM 36.5386 -89.1714 336° Northwest 428 493 35,200 -950 Descending Memphis Center
Tue 12:55:44 PM 36.6433 -89.2344 334° Northwest 428 493 34,200 -950 Descending Memphis Center
Tue 12:56:44 PM 36.7503 -89.2978 335° Northwest 423 487 33,300 -950 Descending Memphis Center
Tue 12:57:44 PM 36.8592 -89.3611 335° Northwest 428 493 32,300 -1,000 Descending Memphis Center
Tue 12:58:44 PM 36.9658 -89.4247 335° Northwest 428 493 31,300 -1,450 Descending Memphis Center
Tue 12:59:44 PM 37.0706 -89.4858 335° Northwest 428 493 29,400 -1,656 Descending Memphis Center
Tue 01:01:56 PM 37.2889 -89.6078 336° Northwest 400 460 26,000 -1,052 Descending Kansas City Center
Tue 01:02:58 PM 37.3889 -89.6611 337° Northwest 393 452 26,000  Level Kansas City Center
Tue 01:04:00 PM 37.4894 -89.7156 337° Northwest 393 452 26,000 -871 Level Kansas City Center
Tue 01:05:02 PM 37.5903 -89.7708 337° Northwest 394 453 24,200 -2,129 Descending Kansas City Center
Tue 01:06:04 PM 37.7047 -89.8358 336° Northwest 385 443 21,600 -2,226 Descending Kansas City Center
Tue 01:07:06 PM 37.7969 -89.8867 336° Northwest 373 429 19,600 -1,887 Descending Kansas City Center
Tue 01:08:08 PM 37.8961 -89.9394 337° Northwest 352 405 17,700 -2,032 Descending Kansas City Center
Tue 01:09:10 PM 37.9828 -89.9850 337° Northwest 339 390 15,400 -2,129 Descending Kansas City Center
Tue 01:10:12 PM 38.0742 -90.0372 336° Northwest 334 384 13,300 -1,935 Descending Kansas City Center
Tue 01:11:14 PM 38.1583 -90.0728 342° North 322 371 11,400 -1,500 Descending Kansas City Center
Tue 01:12:16 PM 38.2436 -90.0811 356° North 307 353 10,200 -823 Descending Kansas City Center
Tue 01:13:18 PM 38.3219 -90.0897 355° North 287 330 9,700 -1,016 Descending Kansas City Center
Tue 01:14:20 PM 38.3950 -90.0978 355° North 266 306 8,100 -1,452 Descending Kansas City Center
Tue 01:15:22 PM 38.4689 -90.1083 354° North 266 306 6,700 -1,548 Descending Kansas City Center
Tue 01:16:24 PM 38.5394 -90.1319 345° North 267 307 4,900 -1,403 Descending Kansas City Center
Tue 01:17:26 PM 38.6203 -90.1650 342° North 257 296 3,800 -823 Descending Kansas City Center
Tue 01:18:28 PM 38.6711 -90.2028 330° Northwest 223 257 3,200 -677 Descending Kansas City Center
Tue 01:19:30 PM 38.6972 -90.2564 302° West 179 206 2,400 -919 Descending Kansas City Center
Tue 01:20:32 PM 38.7192 -90.3003 303° West 151 174 1,300 -871 Descending Kansas City Center
Tue 01:21:34 PM 38.7403 -90.3425 303° West 146 168 600 -677 Descending Kansas City Center

Login

Don't have an account? Register now (free) for customized features, flight alerts, and more!